Архив погоды в Колывани

Метеограмма Колывань
Вторник, 19 Июня
Время местн. Темп Ветер Видим Явления Облачность нижн/средн/верх Атм. давл. Влжн Точка росы ВНГО R Сост. почвы Tg s
Напр Скр Прв ур.ст ур.м изм
13:00 +23.5° В,Ю-В 1 - 20 км - облачно 736 749 -1.1 60% +15.2° 1.5 км - - - -
10:00 +18.8° Ю,Ю-З 3 - 20 км - облачно с прояснениями 737 750 +0.2 83% +15.9° 1.5 км - - - -
07:00 +16.7° Ю 1 - 20 км облака рассеиваются {гроза, ливневые осадки} ясно 737 750 +0.5 94% +15.7° более 2.5 км 18 Сырая (есть малые или большие лужи) +15° -
04:00 +16° Ю,Ю-В 1 - 20 км ливневый дождь {гроза} облачно 737 749 -0.1 94% +15° 600 м - - - -
01:00 +16.2° В 2 14 4 км слабая или умеренная гроза с осадками облачно 737 749 0 91% +14.7° 600 м - - - -
Понедельник, 18 Июня
Время местн. Темп Ветер Видим Явления Облачность нижн/средн/верх Атм. давл. Влжн Точка росы ВНГО R Сост. почвы Tg s
Напр Скр Прв ур.ст ур.м изм
22:00 +21.6° С 2 - 20 км - переменная облачность 737 749 +0.1 58% +12.9° 1.5 км - - - -
19:00 +29.9° В,Ю-В 2 - 20 км - переменная облачность 737 749 -0.7 31% +10.9° 1 км 0 - - -
16:00 +30.4° В 3 - 20 км - переменная облачность 737 749 -0.9 29% +10.4° 1 км - - - -
13:00 +29.1° В 3 - 20 км - незначительная облачность 738 750 -1.2 39% +13.7° более 2.5 км - - - -
10:00 +23.7° С 1 - 20 км - переменная облачность 739 752 -1 65% +16.7° 1.5 км - - - -
07:00 +16.5° З 2 - 20 км небо без изменений {ливневые осадки} преимущественно облачно 740 753 +0.3 85% +13.9° 1 км 0 Влажная (без луж) +16° -
04:00 +17.8° В 3 12 20 км - преимущественно облачно 740 753 -0.5 76% +13.5° 1.5 км - - - -
01:00 +21.9° Ю-З 4 10 20 км - облачно с прояснениями 740 753 +0.6 60% +13.8° 1 км - - - -
Воскресенье, 17 Июня
Время местн. Темп Ветер Видим Явления Облачность нижн/средн/верх Атм. давл. Влжн Точка росы ВНГО R Сост. почвы Tg s
Напр Скр Прв ур.ст ур.м изм
22:00 +21.6° В 3 - 20 км - облачно с прояснениями 740 752 -1.6 68% +15.4° 2 км - - - -
19:00 +24.3° В 1 - 20 км - облачно с прояснениями 741 754 -1.1 57% +15.2° 1.5 км 0.3 - - -
16:00 +23.8° Ю-В 2 - 20 км - преимущественно облачно 743 755 -1.1 53% +13.7° 1.5 км - - - -
13:00 +20.9° Ю 2 - 20 км небо без изменений {ливневые осадки} облачно 744 756 -0.7 66% +14.2° 1 км - - - -
10:00 +14.2° В 2 - 20 км ливневый дождь облачно 744 757 +0.1 89% +12.4° 1 км - - - -
07:00 +13.5° штиль 0 - 20 км - облачно 744 757 -0.3 84% +10.8° 1 км 0 Влажная (без луж) +10° -
04:00 +12.2° В 2 - 20 км - преимущественно облачно 745 758 -0.2 92% +11° 1.5 км - - - -
01:00 +11.6° штиль 0 - 20 км - переменная облачность 745 758 +0.3 93% +10.5° 1.5 км - - - -
Суббота, 16 Июня
Время местн. Темп Ветер Видим Явления Облачность нижн/средн/верх Атм. давл. Влжн Точка росы ВНГО R Сост. почвы Tg s
Напр Скр Прв ур.ст ур.м изм
22:00 +15.4° штиль 0 - 20 км - облачно 744 757 +0.8 75% +11° 1 км - - - -
19:00 +19.3° Ю-З 3 - 20 км ливневый дождь облачно 744 756 +0.3 71% +13.9° 1 км 0.4 - - -
16:00 +19.3° Ю 1 10 20 км ливневый дождь облачно 743 756 -0.2 68% +13.2° 1 км - - - -
13:00 +20.2° Ю,Ю-З 4 - 20 км - облачно 744 756 +0.9 63% +12.9° 1.5 км - - - -
10:00 +20.2° Ю 4 - 20 км - переменная облачность 743 755 -0.2 58% +11.7° 1.5 км - - - -